Time;durP1;ratioP1;P1;durP2;ratioP2;P2;SDS_P1;SDS_P2;PMS_P1;PMS_P2;Temp;Humidity;BMP_temperature;BMP_pressure;BME280_temperature;BME280_humidity;BME280_pressure;Samples;Min_cycle;Max_cycle;Signal;HPM_P1;HPM_P2
2022/11/15 00:00:10;;;;;;;54.80;25.00;;;;;;;5.62;99.56;100104.21;106041;1281;72784;-74
2022/11/15 00:03:22;;;;;;;59.30;28.40;;;;;;;5.66;99.38;100096.95;106077;1295;66609;-76
2022/11/15 00:06:29;;;;;;;50.20;23.40;;;;;;;5.73;99.30;100096.55;105323;1290;1002433;-75
2022/11/15 00:09:35;;;;;;;58.80;27.10;;;;;;;5.77;99.05;100094.02;106077;1289;58305;-75
2022/11/15 00:12:41;;;;;;;56.40;24.30;;;;;;;5.79;98.87;100094.62;106100;1288;59414;-76
2022/11/15 00:15:48;;;;;;;51.20;24.80;;;;;;;5.79;98.68;100094.28;106084;1287;73071;-75
2022/11/15 00:18:54;;;;;;;47.60;21.50;;;;;;;5.80;98.88;100088.94;103868;1288;1002998;-75
2022/11/15 00:22:01;;;;;;;56.10;27.00;;;;;;;5.79;98.61;100087.55;106035;1296;72588;-75
2022/11/15 00:25:07;;;;;;;54.50;25.60;;;;;;;5.84;98.83;100085.55;106053;1289;60834;-74
2022/11/15 00:28:13;;;;;;;46.70;20.50;;;;;;;5.86;98.68;100089.67;106041;1282;60296;-74
2022/11/15 00:31:20;;;;;;;51.00;23.60;;;;;;;5.85;98.62;100084.95;106065;1289;72197;-76
2022/11/15 00:34:26;;;;;;;60.30;26.70;;;;;;;5.84;98.59;100082.92;106075;1281;68639;-76
2022/11/15 00:37:33;;;;;;;49.80;22.70;;;;;;;5.86;98.66;100081.41;106068;1292;73749;-75
2022/11/15 00:40:39;;;;;;;47.00;21.70;;;;;;;5.83;98.69;100083.87;106065;1289;59179;-76
2022/11/15 00:43:45;;;;;;;45.80;20.30;;;;;;;5.82;98.83;100080.92;106081;1282;60229;-76
2022/11/15 00:46:51;;;;;;;55.30;26.30;;;;;;;5.81;98.94;100078.64;106071;1285;72739;-75
2022/11/15 00:49:58;;;;;;;55.70;24.90;;;;;;;5.82;98.77;100079.14;106051;1288;69092;-75
2022/11/15 00:53:04;;;;;;;59.10;26.20;;;;;;;5.86;98.88;100071.34;106081;1292;72576;-77
2022/11/15 00:56:10;;;;;;;55.60;26.00;;;;;;;5.88;99.09;100066.61;106054;1289;60676;-75
2022/11/15 00:59:17;;;;;;;56.70;25.40;;;;;;;5.91;98.92;100066.13;106083;1289;61541;-76
2022/11/15 01:02:23;;;;;;;54.40;25.30;;;;;;;5.90;98.96;100060.21;106072;1282;74241;-76
2022/11/15 01:05:30;;;;;;;55.40;23.80;;;;;;;5.84;99.20;100058.25;106093;1292;68097;-75
2022/11/15 01:08:38;;;;;;;53.30;24.20;;;;;;;5.80;99.18;100052.64;106075;1289;71832;-75
2022/11/15 01:11:45;;;;;;;49.60;21.70;;;;;;;5.81;99.29;100049.45;106056;1283;60480;-76
2022/11/15 01:14:51;;;;;;;52.30;22.90;;;;;;;5.80;99.50;100048.41;106085;1292;59010;-75
2022/11/15 01:17:58;;;;;;;54.80;23.60;;;;;;;5.78;99.63;100046.11;106064;1291;73164;-76
2022/11/15 01:21:10;;;;;;;51.10;21.70;;;;;;;5.77;99.94;100041.23;106080;1287;66544;-76
2022/11/15 01:24:17;;;;;;;50.70;21.20;;;;;;;5.74;99.84;100041.39;106016;1287;71417;-75
2022/11/15 01:27:23;;;;;;;45.20;19.10;;;;;;;5.71;99.91;100031.34;106063;1288;60019;-75
2022/11/15 01:30:30;;;;;;;50.80;20.40;;;;;;;5.66;100.00;100028.27;106069;1287;58960;-74
2022/11/15 01:33:36;;;;;;;42.60;18.00;;;;;;;5.67;100.00;100027.69;106065;1282;73013;-75
2022/11/15 01:36:43;;;;;;;51.20;22.00;;;;;;;5.65;100.00;100022.20;106092;1283;67847;-76
2022/11/15 01:39:49;;;;;;;45.00;20.40;;;;;;;5.64;100.00;100015.92;106046;1289;71669;-75
2022/11/15 01:42:56;;;;;;;44.60;18.60;;;;;;;5.66;100.00;100003.50;106039;1289;60896;-74
2022/11/15 01:46:37;;;;;;;47.20;20.20;;;;;;;5.67;99.96;100003.23;106065;1289;60427;-75
2022/11/15 01:49:53;;;;;;;48.50;20.40;;;;;;;5.70;99.97;99998.70;105468;1297;73819;-75
2022/11/15 01:52:59;;;;;;;49.00;21.10;;;;;;;5.72;100.00;99997.33;105476;1297;68885;-76
2022/11/15 01:56:16;;;;;;;51.00;22.90;;;;;;;5.74;100.00;99995.27;105481;1298;73804;-75
2022/11/15 01:59:23;;;;;;;53.70;23.40;;;;;;;5.74;100.00;99984.90;105413;1283;60767;-75
2022/11/15 02:02:29;;;;;;;53.10;23.10;;;;;;;5.74;100.00;99980.84;105505;1296;60640;-75
2022/11/15 02:05:37;;;;;;;52.10;22.80;;;;;;;5.77;100.00;99977.64;105467;1290;74071;-75
2022/11/15 02:08:44;;;;;;;59.50;24.20;;;;;;;5.78;100.00;99976.52;105480;1290;66981;-74
2022/11/15 02:11:54;;;;;;;56.90;22.50;;;;;;;5.76;100.00;99965.38;105398;1297;72908;-74
2022/11/15 02:15:02;;;;;;;51.30;21.00;;;;;;;5.75;100.00;99961.59;105479;1304;58139;-74
2022/11/15 02:18:27;;;;;;;46.40;18.80;;;;;;;5.72;100.00;99959.97;105488;1297;61631;-73
2022/11/15 02:21:46;;;;;;;47.90;20.20;;;;;;;5.64;100.00;99956.75;105400;1299;73854;-74
2022/11/15 02:25:35;;;;;;;45.90;18.40;;;;;;;5.56;100.00;99949.10;105646;1297;68706;-75
2022/11/15 02:28:55;;;;;;;53.50;22.30;;;;;;;5.51;100.00;99952.61;106056;1289;73928;-73
2022/11/15 02:32:39;;;;;;;50.80;22.60;;;;;;;5.51;100.00;99950.32;106064;1289;60610;-75
2022/11/15 02:36:10;;;;;;;54.30;23.00;;;;;;;5.50;100.00;99947.55;106074;1284;60236;-75
2022/11/15 02:39:45;;;;;;;54.30;20.80;;;;;;;5.51;100.00;99943.83;106002;1284;74077;-74
2022/11/15 02:50:15;;;;;;;56.40;23.70;;;;;;;5.52;100.00;99946.76;106070;1289;60631;-75
2022/11/15 02:53:25;;;;;;;48.30;19.80;;;;;;;5.55;100.00;99942.48;106082;1292;59548;-76
2022/11/15 02:56:32;;;;;;;47.30;19.10;;;;;;;5.57;100.00;99939.02;106061;1284;74309;-75
2022/11/15 03:00:06;;;;;;;45.60;17.10;;;;;;;5.56;100.00;99934.52;106008;1292;69219;-74
2022/11/15 03:03:55;;;;;;;45.20;19.60;;;;;;;5.52;100.00;99930.88;106057;1285;73784;-73
2022/11/15 03:07:29;;;;;;;56.70;22.10;;;;;;;5.44;100.00;99923.41;106041;1282;60377;-75
2022/11/15 03:11:08;;;;;;;56.60;23.00;;;;;;;5.43;100.00;99923.13;106088;1289;60431;-75
2022/11/15 03:14:23;;;;;;;54.90;21.90;;;;;;;5.46;100.00;99916.63;106073;1282;73827;-76
2022/11/15 03:17:37;;;;;;;60.20;22.70;;;;;;;5.48;100.00;99912.67;105969;1284;68040;-74
2022/11/15 03:20:45;;;;;;;50.70;20.20;;;;;;;5.46;100.00;99909.40;106071;1289;72708;-75
2022/11/15 03:23:54;;;;;;;42.10;16.50;;;;;;;5.44;100.00;99910.77;105980;1297;59532;-74
2022/11/15 03:27:02;;;;;;;53.90;21.20;;;;;;;5.40;100.00;99910.27;106068;1285;58726;-74
2022/11/15 03:30:10;;;;;;;60.60;23.50;;;;;;;5.40;100.00;99909.80;106034;1292;74738;-74
2022/11/15 03:33:19;;;;;;;48.10;18.80;;;;;;;5.40;100.00;99904.50;106059;1289;67956;-74
2022/11/15 03:36:26;;;;;;;50.20;18.70;;;;;;;5.40;100.00;99906.04;106024;1289;73812;-75
2022/11/15 03:39:33;;;;;;;53.20;21.60;;;;;;;5.38;100.00;99898.98;106037;1289;57915;-75
2022/11/15 03:42:54;;;;;;;56.60;22.00;;;;;;;5.36;100.00;99900.70;106057;1297;60023;-75
2022/11/15 03:46:16;;;;;;;54.50;21.00;;;;;;;5.38;100.00;99900.90;106022;1290;74284;-74
2022/11/15 03:49:34;;;;;;;53.10;20.00;;;;;;;5.41;100.00;99900.91;106024;1289;68069;-75
2022/11/15 03:52:42;;;;;;;56.20;22.20;;;;;;;5.40;100.00;99897.12;106024;1292;70058;-75
2022/11/15 03:55:48;;;;;;;52.30;21.00;;;;;;;5.38;100.00;99891.91;106062;1290;57686;-75
2022/11/15 03:58:55;;;;;;;39.00;15.80;;;;;;;5.39;100.00;99890.28;106080;1284;59014;-74
2022/11/15 04:02:01;;;;;;;45.20;17.90;;;;;;;5.37;100.00;99893.23;106076;1292;73120;-75
2022/11/15 04:05:08;;;;;;;47.70;17.60;;;;;;;5.33;100.00;99891.71;106064;1289;68095;-74
2022/11/15 04:08:14;;;;;;;48.90;19.90;;;;;;;5.30;100.00;99896.46;106073;1287;71367;-74
2022/11/15 04:11:21;;;;;;;37.90;15.20;;;;;;;5.26;100.00;99895.78;106065;1292;58640;-73
2022/11/15 04:14:27;;;;;;;46.40;18.80;;;;;;;5.20;100.00;99896.68;106071;1281;60219;-74
2022/11/15 04:17:48;;;;;;;41.40;16.70;;;;;;;5.15;100.00;99892.94;106076;1291;73141;-74
2022/11/15 04:24:19;;;;;;;42.80;16.80;;;;;;;5.13;100.00;99890.55;106086;1289;71101;-76
2022/11/15 04:27:25;;;;;;;40.70;16.20;;;;;;;5.13;100.00;99890.40;105983;1292;59226;-75
2022/11/15 04:30:31;;;;;;;44.10;17.70;;;;;;;5.15;100.00;99891.51;106051;1288;61598;-75
2022/11/15 04:33:38;;;;;;;46.80;20.00;;;;;;;5.18;100.00;99891.86;106062;1289;72743;-75
2022/11/15 04:40:10;;;;;;;43.60;16.60;;;;;;;5.16;100.00;99892.17;106088;1289;72633;-74
2022/11/15 04:43:16;;;;;;;45.20;17.20;;;;;;;5.13;100.00;99892.33;106068;1289;59188;-75
2022/11/15 04:46:24;;;;;;;48.30;17.80;;;;;;;5.11;100.00;99884.53;106095;1289;59014;-75
2022/11/15 04:49:30;;;;;;;50.10;18.90;;;;;;;5.11;100.00;99877.70;106080;1291;73105;-76
2022/11/15 04:52:36;;;;;;;43.00;17.80;;;;;;;5.09;100.00;99876.34;106093;1289;68251;-76
2022/11/15 04:55:46;;;;;;;45.80;17.30;;;;;;;5.04;100.00;99871.04;106058;1283;72953;-76
2022/11/15 04:58:52;;;;;;;50.80;19.80;;;;;;;5.03;100.00;99874.23;106052;1290;59750;-75
2022/11/15 05:01:59;;;;;;;49.10;19.10;;;;;;;5.09;100.00;99876.58;106066;1291;60269;-73
2022/11/15 05:05:05;;;;;;;54.20;18.80;;;;;;;5.07;100.00;99870.85;106070;1289;73122;-76
2022/11/15 05:08:12;;;;;;;47.50;17.40;;;;;;;5.10;100.00;99875.61;106074;1292;65610;-77
2022/11/15 05:11:18;;;;;;;45.30;17.30;;;;;;;5.09;100.00;99871.45;106050;1289;72684;-77
2022/11/15 05:14:24;;;;;;;51.40;20.10;;;;;;;5.10;100.00;99869.28;106069;1288;58123;-76
2022/11/15 05:17:31;;;;;;;49.90;19.90;;;;;;;5.15;100.00;99870.77;105989;1292;60573;-79
2022/11/15 05:20:38;;;;;;;48.60;18.00;;;;;;;5.21;100.00;99870.05;106045;1290;72947;-78
2022/11/15 05:23:44;;;;;;;53.70;20.50;;;;;;;5.24;100.00;99872.71;106047;1289;67006;-78
2022/11/15 05:26:50;;;;;;;50.40;19.40;;;;;;;5.31;100.00;99872.98;105987;1289;72561;-76
2022/11/15 05:29:57;;;;;;;40.90;16.60;;;;;;;5.34;100.00;99869.12;106046;1292;57205;-75
2022/11/15 05:33:04;;;;;;;45.20;17.90;;;;;;;5.32;100.00;99871.88;106037;1284;58860;-75
2022/11/15 05:36:35;;;;;;;50.70;17.70;;;;;;;5.27;100.00;99873.90;106057;1281;74269;-75
2022/11/15 05:39:41;;;;;;;56.20;20.20;;;;;;;5.30;100.00;99871.29;105976;1290;67732;-75
2022/11/15 05:42:48;;;;;;;49.90;19.20;;;;;;;5.36;100.00;99869.02;106026;1284;73888;-75
2022/11/15 05:45:55;;;;;;;51.60;20.00;;;;;;;5.41;100.00;99871.71;105873;1285;186240;-74
2022/11/15 05:49:01;;;;;;;51.10;19.70;;;;;;;5.42;100.00;99872.33;105972;1292;61569;-76
2022/11/15 05:52:14;;;;;;;46.60;18.80;;;;;;;5.42;100.00;99875.17;106014;1288;74273;-76
2022/11/15 05:55:21;;;;;;;50.00;19.50;;;;;;;5.46;100.00;99872.83;106063;1284;66845;-76
2022/11/15 05:58:28;;;;;;;43.10;18.10;;;;;;;5.51;100.00;99870.23;106015;1284;72768;-79
2022/11/15 06:01:38;;;;;;;49.50;18.90;;;;;;;5.52;100.00;99863.83;106051;1284;58082;-79
2022/11/15 06:04:45;;;;;;;42.80;17.10;;;;;;;5.53;100.00;99865.34;106049;1284;61149;-78
2022/11/15 06:07:51;;;;;;;42.30;16.60;;;;;;;5.54;100.00;99864.05;106059;1287;73072;-77
2022/11/15 06:11:04;;;;;;;37.90;14.70;;;;;;;5.53;100.00;99866.04;106019;1288;66675;-78
2022/11/15 06:14:11;;;;;;;49.20;19.70;;;;;;;5.50;100.00;99870.13;106042;1284;72685;-77
2022/11/15 06:17:17;;;;;;;51.00;20.10;;;;;;;5.51;100.00;99876.21;105983;1289;59741;-78
2022/11/15 06:20:29;;;;;;;49.20;19.90;;;;;;;5.51;100.00;99877.11;106050;1289;58672;-77
2022/11/15 06:23:36;;;;;;;50.10;19.70;;;;;;;5.52;100.00;99876.88;105957;1284;71822;-78
2022/11/15 06:26:42;;;;;;;50.10;19.50;;;;;;;5.56;100.00;99868.70;105843;1291;67960;-80
2022/11/15 06:29:48;;;;;;;67.80;26.40;;;;;;;5.61;100.00;99876.50;106034;1291;73593;-79
2022/11/15 06:33:03;;;;;;;57.40;24.40;;;;;;;5.65;100.00;99874.14;106006;1289;59305;-76
2022/11/15 06:36:13;;;;;;;42.30;17.80;;;;;;;5.64;100.00;99878.96;106039;1289;60518;-75
2022/11/15 06:39:22;;;;;;;39.50;16.40;;;;;;;5.62;100.00;99880.30;105971;1289;72140;-77
2022/11/15 06:42:29;;;;;;;41.50;16.20;;;;;;;5.63;100.00;99883.44;105928;1290;66775;-74
2022/11/15 06:45:35;;;;;;;42.20;16.90;;;;;;;5.63;100.00;99882.02;105948;1292;72413;-74
2022/11/15 06:48:42;;;;;;;43.10;18.20;;;;;;;5.61;100.00;99878.05;105967;1291;60071;-74
2022/11/15 06:51:48;;;;;;;39.70;16.10;;;;;;;5.62;100.00;99874.66;105948;1291;61434;-73
2022/11/15 06:54:55;;;;;;;51.00;19.90;;;;;;;5.65;100.00;99875.02;105958;1275;74329;-73
2022/11/15 06:58:01;;;;;;;51.80;19.70;;;;;;;5.72;100.00;99868.09;105995;1290;66731;-74
2022/11/15 07:01:11;;;;;;;47.10;19.10;;;;;;;5.75;100.00;99874.73;105964;1285;71829;-75
2022/11/15 07:04:17;;;;;;;44.40;17.90;;;;;;;5.76;99.98;99873.64;106036;1289;58320;-74
2022/11/15 07:07:24;;;;;;;42.60;17.00;;;;;;;5.77;99.88;99876.58;106051;1289;60016;-73
2022/11/15 07:10:30;;;;;;;43.80;16.80;;;;;;;5.75;99.63;99881.43;106053;1292;72627;-78
2022/11/15 07:13:37;;;;;;;45.10;18.30;;;;;;;5.74;99.69;99881.69;106065;1289;69019;-78
2022/11/15 07:16:43;;;;;;;43.80;18.00;;;;;;;5.74;99.89;99879.05;106042;1284;72703;-78
2022/11/15 07:19:50;;;;;;;47.10;19.30;;;;;;;5.75;99.68;99876.00;106024;1291;60801;-77
2022/11/15 07:23:01;;;;;;;43.80;18.40;;;;;;;5.77;99.77;99878.53;106063;1285;58953;-78
2022/11/15 07:26:08;;;;;;;45.40;17.50;;;;;;;5.78;99.42;99877.75;106054;1292;71861;-79
2022/11/15 07:29:15;;;;;;;40.70;17.70;;;;;;;5.80;99.44;99876.77;106064;1289;67611;-78
2022/11/15 07:32:22;;;;;;;39.30;16.10;;;;;;;5.82;99.02;99874.17;106017;1292;73907;-77
2022/11/15 07:35:29;;;;;;;38.30;17.50;;;;;;;5.86;99.05;99874.86;106001;1291;57568;-79
2022/11/15 07:38:36;;;;;;;37.50;16.40;;;;;;;5.88;98.92;99880.90;105980;1291;59073;-79
2022/11/15 07:41:49;;;;;;;34.50;15.60;;;;;;;5.87;98.47;99881.08;105997;1290;71739;-78
2022/11/15 07:44:56;;;;;;;34.00;14.40;;;;;;;5.89;98.25;99875.16;105983;1284;67805;-77
2022/11/15 07:48:02;;;;;;;35.80;14.90;;;;;;;5.92;98.52;99875.34;105970;1291;72434;-77
2022/11/15 07:51:13;;;;;;;35.40;14.80;;;;;;;5.93;97.97;99880.39;105959;1298;59277;-77
2022/11/15 07:54:20;;;;;;;36.90;15.20;;;;;;;5.96;97.40;99878.45;105983;1288;60111;-75
2022/11/15 07:57:26;;;;;;;33.20;13.70;;;;;;;5.98;97.26;99879.56;105973;1291;73005;-76
2022/11/15 08:00:35;;;;;;;31.10;14.30;;;;;;;6.03;97.07;99876.33;106008;1284;65516;-77
2022/11/15 08:03:41;;;;;;;32.30;13.70;;;;;;;6.07;97.25;99874.80;105981;1290;72710;-77
2022/11/15 08:06:48;;;;;;;29.60;12.40;;;;;;;6.09;96.48;99872.20;106000;1297;57728;-78
2022/11/15 08:09:55;;;;;;;30.20;12.20;;;;;;;6.08;96.23;99866.81;105960;1283;60405;-78
2022/11/15 08:13:10;;;;;;;31.10;13.10;;;;;;;6.06;96.23;99871.86;106008;1290;72969;-78
2022/11/15 08:16:19;;;;;;;39.90;15.60;;;;;;;6.04;96.25;99873.25;105880;1292;67746;-77
2022/11/15 08:19:26;;;;;;;36.30;15.60;;;;;;;6.08;96.26;99872.80;105982;1290;72564;-77
2022/11/15 08:22:33;;;;;;;31.00;14.60;;;;;;;6.14;96.60;99881.79;105996;1291;58344;-78
2022/11/15 08:25:40;;;;;;;31.70;13.50;;;;;;;6.19;96.37;99882.86;105975;1284;60391;-78
2022/11/15 08:28:46;;;;;;;36.00;14.60;;;;;;;6.24;96.31;99881.52;105967;1287;71737;-78
2022/11/15 08:31:56;;;;;;;33.20;13.90;;;;;;;6.26;95.87;99886.46;105924;1290;66436;-77
2022/11/15 08:35:02;;;;;;;29.30;11.70;;;;;;;6.29;95.85;99883.67;105947;1291;73448;-76
2022/11/15 08:38:09;;;;;;;30.60;12.10;;;;;;;6.29;95.67;99883.85;105969;1291;57286;-76
2022/11/15 08:41:30;;;;;;;33.90;12.70;;;;;;;6.27;95.67;99878.32;106004;1292;59591;-77
2022/11/15 08:44:37;;;;;;;32.20;13.20;;;;;;;6.23;95.36;99875.95;105864;1290;73442;-77
2022/11/15 08:47:43;;;;;;;33.10;14.20;;;;;;;6.22;95.67;99871.27;105990;1291;67603;-74
2022/11/15 08:50:56;;;;;;;33.00;14.00;;;;;;;6.24;95.49;99867.75;105969;1291;72362;-76
2022/11/15 08:54:03;;;;;;;30.70;14.00;;;;;;;6.26;95.92;99863.23;105965;1292;57340;-76
2022/11/15 08:57:10;;;;;;;31.50;13.60;;;;;;;6.25;95.56;99870.15;105937;1290;59319;-78
2022/11/15 09:00:19;;;;;;;31.60;12.40;;;;;;;6.24;95.77;99871.98;105957;1284;74135;-77
2022/11/15 09:03:26;;;;;;;30.50;13.10;;;;;;;6.22;95.41;99867.15;105909;1283;68928;-77
2022/11/15 09:06:32;;;;;;;30.40;13.10;;;;;;;6.24;96.19;99864.78;105975;1291;72718;-78
2022/11/15 09:09:38;;;;;;;30.10;12.40;;;;;;;6.26;95.68;99864.44;105937;1284;60442;-77
2022/11/15 09:12:48;;;;;;;29.80;12.70;;;;;;;6.26;95.44;99863.41;105975;1291;60370;-76
2022/11/15 09:15:59;;;;;;;29.00;12.40;;;;;;;6.24;95.04;99867.58;105945;1290;73929;-79
2022/11/15 09:19:06;;;;;;;26.80;11.20;;;;;;;6.19;94.74;99872.29;105985;1284;68795;-77
2022/11/15 09:22:17;;;;;;;26.30;11.80;;;;;;;6.21;95.00;99875.54;105877;1291;73814;-76
2022/11/15 09:25:24;;;;;;;26.50;11.20;;;;;;;6.23;95.20;99875.75;105979;1290;59395;-77
2022/11/15 09:28:32;;;;;;;29.20;13.10;;;;;;;6.20;95.09;99876.98;105970;1291;60541;-76
2022/11/15 09:31:39;;;;;;;31.40;12.20;;;;;;;6.11;94.61;99867.33;105969;1283;72088;-77
2022/11/15 09:34:46;;;;;;;29.40;12.70;;;;;;;6.06;94.90;99869.02;105990;1291;67531;-76
2022/11/15 09:37:52;;;;;;;26.10;11.40;;;;;;;6.07;95.22;99867.04;105963;1283;73425;-77
2022/11/15 09:41:13;;;;;;;28.70;12.50;;;;;;;6.14;95.46;99866.95;105962;1291;60585;-78
2022/11/15 09:45:12;;;;;;;28.90;11.60;;;;;;;6.22;95.32;99868.06;106000;1291;61183;-78
2022/11/15 09:48:47;;;;;;;28.20;12.40;;;;;;;6.26;95.26;99865.34;106004;1291;71386;-78
2022/11/15 09:51:50;;;;;;;25.60;10.50;;;;;;;6.30;95.19;99867.71;105921;1291;66575;-77
2022/11/15 09:54:47;;;;;;;28.60;12.40;;;;;;;6.34;95.27;99865.02;105897;1290;71937;-78
2022/11/15 09:58:00;;;;;;;23.80;11.50;;;;;;;6.39;94.90;99865.42;105974;1281;58144;-78
2022/11/15 10:00:52;;;;;;;27.90;12.80;;;;;;;6.44;95.15;99862.44;105937;1290;58659;-79
2022/11/15 10:03:41;;;;;;;28.60;11.30;;;;;;;6.49;94.47;99858.27;105999;1292;72185;-78
2022/11/15 10:06:32;;;;;;;29.20;12.70;;;;;;;6.52;94.35;99855.29;105936;1292;67779;-81
2022/11/15 10:09:29;;;;;;;28.10;12.20;;;;;;;6.54;94.08;99851.41;105978;1292;72650;-78
2022/11/15 10:12:18;;;;;;;19.30;9.30;;;;;;;6.59;94.35;99848.26;106060;1287;57326;-74
2022/11/15 10:15:15;;;;;;;29.90;13.00;;;;;;;6.59;93.78;99847.89;106039;1287;58942;-77
2022/11/15 10:18:15;;;;;;;23.90;12.00;;;;;;;6.57;93.76;99843.29;106026;1291;71615;-78
2022/11/15 10:21:19;;;;;;;30.70;13.30;;;;;;;6.56;94.13;99844.09;106040;1287;66545;-77
2022/11/15 10:24:12;;;;;;;29.80;12.60;;;;;;;6.61;94.32;99831.77;105899;1281;72913;-77
2022/11/15 10:27:00;;;;;;;28.50;13.50;;;;;;;6.61;93.68;99825.92;106047;1283;58042;-76
2022/11/15 10:29:50;;;;;;;27.30;12.40;;;;;;;6.62;93.69;99824.27;106031;1289;61572;-76
2022/11/15 10:32:40;;;;;;;28.20;12.00;;;;;;;6.62;93.61;99824.60;105903;1290;73028;-76
2022/11/15 10:35:30;;;;;;;27.20;12.30;;;;;;;6.62;94.15;99825.35;105979;1284;66601;-77
2022/11/15 10:38:18;;;;;;;27.80;11.90;;;;;;;6.63;94.18;99824.75;105911;1291;71495;-79
2022/11/15 10:41:11;;;;;;;30.30;13.10;;;;;;;6.63;93.92;99821.39;105975;1284;59789;-77
2022/11/15 10:44:18;;;;;;;28.80;12.10;;;;;;;6.63;94.08;99830.70;105891;1291;61514;-77
2022/11/15 10:47:22;;;;;;;28.50;12.80;;;;;;;6.64;94.20;99830.69;105979;1284;73010;-76
2022/11/15 10:50:32;;;;;;;29.90;13.10;;;;;;;6.63;94.20;99827.02;105894;1294;68384;-77
2022/11/15 10:53:28;;;;;;;34.00;14.70;;;;;;;6.62;94.22;99822.67;105951;1298;73831;-76
2022/11/15 10:56:22;;;;;;;31.20;13.50;;;;;;;6.60;94.20;99817.52;105944;1292;59413;-74
2022/11/15 10:59:33;;;;;;;34.00;14.50;;;;;;;6.55;94.47;99817.34;105948;1292;58180;-74
2022/11/15 11:02:32;;;;;;;27.90;11.90;;;;;;;6.51;94.69;99825.02;105911;1291;70717;-74
2022/11/15 11:05:28;;;;;;;33.60;14.50;;;;;;;6.50;94.95;99831.05;106000;1292;67957;-76
2022/11/15 11:08:15;;;;;;;34.30;13.40;;;;;;;6.50;94.80;99829.98;106055;1288;73999;-75
2022/11/15 11:11:05;;;;;;;35.10;13.80;;;;;;;6.51;94.97;99826.41;106014;1287;60742;-74
2022/11/15 11:13:53;;;;;;;36.30;15.80;;;;;;;6.55;95.11;99827.17;105982;1292;60806;-74
2022/11/15 11:16:57;;;;;;;33.10;14.60;;;;;;;6.57;94.97;99824.79;105992;1289;72755;-74
2022/11/15 11:20:07;;;;;;;34.40;15.30;;;;;;;6.62;96.23;99822.00;105991;1292;68477;-73
2022/11/15 11:23:33;;;;;;;40.30;16.10;;;;;;;6.70;96.12;99814.10;105995;1287;72566;-73
2022/11/15 11:26:42;;;;;;;36.90;16.20;;;;;;;6.71;94.93;99817.38;106000;1292;59206;-74
2022/11/15 11:30:17;;;;;;;33.90;14.40;;;;;;;6.77;95.51;99811.33;106048;1287;60280;-75
2022/11/15 11:34:02;;;;;;;32.40;13.70;;;;;;;6.79;94.76;99814.20;105936;1285;73338;-75
2022/11/15 11:37:19;;;;;;;37.80;16.00;;;;;;;6.80;94.59;99805.84;105976;1291;68199;-74
2022/11/15 11:40:29;;;;;;;40.80;15.70;;;;;;;6.81;94.35;99803.47;105953;1282;71536;-74
2022/11/15 11:43:39;;;;;;;37.60;15.40;;;;;;;6.83;94.71;99795.56;105978;1292;58716;-74
2022/11/15 11:46:54;;;;;;;33.30;15.00;;;;;;;6.86;94.19;99792.08;106045;1289;60248;-74
2022/11/15 11:49:53;;;;;;;36.60;15.80;;;;;;;6.88;94.46;99791.21;106067;1290;71775;-74
2022/11/15 11:53:29;;;;;;;44.00;18.80;;;;;;;6.91;94.26;99792.57;105988;1291;69058;-77
2022/11/15 11:56:28;;;;;;;41.20;18.10;;;;;;;7.00;95.34;99789.33;105994;1289;72891;-77
2022/11/15 11:59:51;;;;;;;40.70;18.40;;;;;;;7.07;93.99;99784.81;106026;1287;57352;-76
2022/11/15 12:02:45;;;;;;;35.60;16.70;;;;;;;7.06;93.66;99783.45;106040;1288;61523;-76
2022/11/15 12:05:48;;;;;;;37.50;15.00;;;;;;;7.06;93.91;99780.98;105930;1288;73303;-78
2022/11/15 12:08:56;;;;;;;38.60;16.30;;;;;;;7.07;93.49;99777.42;105919;1288;66929;-78
2022/11/15 12:12:04;;;;;;;42.50;17.70;;;;;;;7.06;93.23;99776.27;105908;1279;71424;-77
2022/11/15 12:15:09;;;;;;;37.90;15.70;;;;;;;7.03;92.64;99776.46;105922;1291;59474;-80
2022/11/15 12:17:57;;;;;;;43.20;16.60;;;;;;;6.99;92.73;99774.23;105941;1290;61705;-80
2022/11/15 12:21:03;;;;;;;37.90;15.90;;;;;;;6.96;92.85;99774.26;105997;1292;71372;-78
2022/11/15 12:24:00;;;;;;;44.20;17.30;;;;;;;6.94;93.08;99775.27;106003;1289;66448;-79
2022/11/15 12:27:32;;;;;;;41.80;15.80;;;;;;;6.91;93.13;99782.86;105987;1296;71259;-81
2022/11/15 12:30:22;;;;;;;42.80;16.20;;;;;;;6.89;93.16;99784.79;105985;1290;59179;-80
2022/11/15 12:33:48;;;;;;;43.20;18.20;;;;;;;6.86;93.38;99785.17;105905;1284;60112;-81
2022/11/15 12:36:44;;;;;;;48.20;18.80;;;;;;;6.84;93.39;99780.55;106006;1290;72018;-78
2022/11/15 12:40:05;;;;;;;43.60;18.20;;;;;;;6.84;93.50;99777.02;105958;1291;66858;-81
2022/11/15 12:43:13;;;;;;;48.00;18.40;;;;;;;6.84;93.52;99780.73;106004;1290;71699;-80
2022/11/15 12:46:06;;;;;;;47.10;19.00;;;;;;;6.84;93.49;99780.71;105954;1292;59749;-82
2022/11/15 12:49:22;;;;;;;47.10;18.80;;;;;;;6.84;93.39;99777.89;105984;1290;57951;-80
2022/11/15 12:52:10;;;;;;;41.40;17.20;;;;;;;6.84;93.61;99779.49;105934;1284;74007;-80
2022/11/15 12:55:00;;;;;;;44.30;17.30;;;;;;;6.82;93.46;99780.28;105972;1291;68869;-79
2022/11/15 12:57:48;;;;;;;41.10;16.50;;;;;;;6.81;93.95;99780.34;105836;1290;72710;-80
2022/11/15 13:00:37;;;;;;;46.90;18.90;;;;;;;6.81;94.00;99776.29;105949;1293;59784;-80
2022/11/15 13:03:26;;;;;;;47.50;18.90;;;;;;;6.80;94.09;99775.82;106018;1289;60654;-81
2022/11/15 13:06:43;;;;;;;46.80;18.20;;;;;;;6.82;94.49;99773.25;105968;1290;74313;-80
2022/11/15 13:09:37;;;;;;;45.20;19.10;;;;;;;6.82;94.27;99767.27;105983;1292;68653;-79
2022/11/15 13:12:25;;;;;;;43.80;19.20;;;;;;;6.83;94.08;99763.66;106053;1294;72363;-80
2022/11/15 13:15:12;;;;;;;44.70;18.20;;;;;;;6.83;94.29;99762.06;106022;1289;58186;-80
2022/11/15 13:18:28;;;;;;;43.00;18.60;;;;;;;6.82;94.22;99763.75;106088;1289;60551;-77
2022/11/15 13:24:31;;;;;;;48.70;19.90;;;;;;;6.75;94.25;99754.17;106041;1289;68697;-79
2022/11/15 13:27:23;;;;;;;48.50;19.60;;;;;;;6.71;94.27;99756.70;106077;1289;73427;-79
2022/11/15 13:30:21;;;;;;;50.80;21.00;;;;;;;6.59;94.24;99757.16;106019;1288;60741;-79
2022/11/15 13:33:41;;;;;;;49.60;21.40;;;;;;;6.53;94.64;99751.39;105983;1292;60305;-79
2022/11/15 13:36:34;;;;;;;44.00;19.20;;;;;;;6.49;94.92;99751.13;105569;1298;74124;-80
2022/11/15 13:39:36;;;;;;;47.50;19.60;;;;;;;6.46;95.12;99747.92;105486;1301;68156;-79
2022/11/15 13:42:28;;;;;;;50.90;19.90;;;;;;;6.44;95.00;99750.52;105455;1298;72483;-79
2022/11/15 13:45:18;;;;;;;41.90;17.00;;;;;;;6.44;95.84;99748.26;102551;1303;1002962;-79
2022/11/15 13:48:08;;;;;;;53.90;20.40;;;;;;;6.42;96.04;99748.70;105498;1295;60030;-78
2022/11/15 13:50:57;;;;;;;51.20;20.60;;;;;;;6.44;96.56;99748.98;105500;1296;71539;-79
2022/11/15 13:53:52;;;;;;;49.70;21.00;;;;;;;6.45;96.34;99749.58;105571;1296;66803;-80
2022/11/15 13:56:52;;;;;;;47.00;20.20;;;;;;;6.46;96.57;99751.79;105491;1296;72388;-82
2022/11/15 13:59:53;;;;;;;50.60;20.80;;;;;;;6.45;96.16;99756.48;105426;1301;58446;-81
2022/11/15 14:02:41;;;;;;;51.20;21.00;;;;;;;6.44;96.38;99752.13;105510;1304;60089;-81
2022/11/15 14:05:28;;;;;;;48.50;19.80;;;;;;;6.44;96.40;99751.58;105581;1296;71711;-81
2022/11/15 14:08:25;;;;;;;51.10;21.90;;;;;;;6.45;96.56;99752.71;105585;1297;68058;-82
2022/11/15 14:11:18;;;;;;;44.30;19.60;;;;;;;6.37;96.07;99749.41;105528;1302;71764;-80
2022/11/15 14:14:09;;;;;;;45.70;19.40;;;;;;;6.26;96.58;99744.30;105998;1292;57213;-80
2022/11/15 14:17:00;;;;;;;46.70;19.30;;;;;;;6.17;97.27;99744.38;106044;1285;61529;-79
2022/11/15 14:19:47;;;;;;;51.70;21.50;;;;;;;6.09;97.60;99739.94;105915;1285;71515;-79
2022/11/15 14:22:36;;;;;;;49.50;20.30;;;;;;;6.04;98.06;99743.45;106074;1291;67775;-80
2022/11/15 14:25:27;;;;;;;49.80;19.70;;;;;;;6.02;98.66;99740.91;106065;1284;71689;-81
2022/11/15 14:28:22;;;;;;;46.00;19.80;;;;;;;6.00;98.69;99739.24;106002;1292;59209;-82
2022/11/15 14:31:15;;;;;;;44.00;18.80;;;;;;;5.98;99.31;99742.58;106001;1296;60287;-80